Time;durP1;ratioP1;P1;durP2;ratioP2;P2;SDS_P1;SDS_P2;PMS_P1;PMS_P2;Temp;Humidity;BMP_temperature;BMP_pressure;BME280_temperature;BME280_humidity;BME280_pressure;Samples;Min_cycle;Max_cycle;Signal;HPM_P1;HPM_P2
2023/06/02 00:00:49;;;;;;;;;;;20.80;76.50;;;;;;5089214;28;19932;-93
2023/06/02 00:03:17;;;;;;;;;;;20.80;76.60;;;;;;5100933;28;19939;-93
2023/06/02 00:05:46;;;;;;;;;;;20.70;76.40;;;;;;5087872;28;20028;-92
2023/06/02 00:08:13;;;;;;;;;;;20.70;76.40;;;;;;5077099;28;19925;-94
2023/06/02 00:10:40;;;;;;;;;;;20.70;76.50;;;;;;5078335;28;19931;-92
2023/06/02 00:13:08;;;;;;;;;;;20.60;76.50;;;;;;5069849;28;19925;-92
2023/06/02 00:15:37;;;;;;;;;;;20.60;79.10;;;;;;5094651;28;19933;-94
2023/06/02 00:18:04;;;;;;;;;;;20.60;76.40;;;;;;5073456;28;19924;-93
2023/06/02 00:20:31;;;;;;;;;;;20.60;76.50;;;;;;5079921;28;20013;-92
2023/06/02 00:22:58;;;;;;;;;;;20.50;76.50;;;;;;5076722;28;19928;-93
2023/06/02 00:25:25;;;;;;;;;;;20.50;76.50;;;;;;5075171;28;19932;-93
2023/06/02 00:27:52;;;;;;;;;;;20.50;76.60;;;;;;5080440;28;20306;-92
2023/06/02 00:30:20;;;;;;;;;;;20.50;76.50;;;;;;5071611;28;19928;-92
2023/06/02 00:32:47;;;;;;;;;;;20.40;76.50;;;;;;5078444;28;19934;-92
2023/06/02 00:35:14;;;;;;;;;;;20.40;76.50;;;;;;5081231;28;19924;-91
2023/06/02 00:37:41;;;;;;;;;;;20.40;76.50;;;;;;5075643;28;19977;-92
2023/06/02 00:40:09;;;;;;;;;;;20.30;76.60;;;;;;5079696;28;19928;-92
2023/06/02 00:42:36;;;;;;;;;;;20.30;76.50;;;;;;5072529;28;19924;-91
2023/06/02 00:45:04;;;;;;;;;;;20.30;76.30;;;;;;5074066;28;19928;-93
2023/06/02 00:47:32;;;;;;;;;;;20.20;76.30;;;;;;5068423;28;19928;-93
2023/06/02 00:49:59;;;;;;;;;;;20.20;76.30;;;;;;5076207;28;19924;-92
2023/06/02 00:52:26;;;;;;;;;;;20.20;76.30;;;;;;5073136;28;19931;-92
2023/06/02 00:54:53;;;;;;;;;;;20.20;76.20;;;;;;5073429;28;19935;-92
2023/06/02 00:57:21;;;;;;;;;;;20.10;76.20;;;;;;5067604;28;19968;-92
2023/06/02 00:59:48;;;;;;;;;;;20.10;76.10;;;;;;5090114;28;19928;-92
2023/06/02 01:02:16;;;;;;;;;;;20.00;75.90;;;;;;5081794;28;20016;-93
2023/06/02 01:04:46;;;;;;;;;;;20.00;76.00;;;;;;5079637;28;19986;-92
2023/06/02 01:07:14;;;;;;;;;;;20.00;76.00;;;;;;5085447;28;19924;-92
2023/06/02 01:09:41;;;;;;;;;;;20.00;76.10;;;;;;5081104;28;19965;-94
2023/06/02 01:12:08;;;;;;;;;;;20.00;76.10;;;;;;5082357;28;19978;-93
2023/06/02 01:14:35;;;;;;;;;;;19.90;76.00;;;;;;5074231;28;20306;-92
2023/06/02 01:17:02;;;;;;;;;;;19.90;75.90;;;;;;5069141;28;19925;-92
2023/06/02 01:19:31;;;;;;;;;;;19.90;75.90;;;;;;5075886;28;20404;-92
2023/06/02 01:22:03;;;;;;;;;;;19.90;76.00;;;;;;5075931;28;19928;-92
2023/06/02 01:24:38;;;;;;;;;;;19.80;75.80;;;;;;5080010;28;20493;-92
2023/06/02 01:27:07;;;;;;;;;;;19.80;75.60;;;;;;5073114;28;20394;-93
2023/06/02 01:29:35;;;;;;;;;;;19.70;75.70;;;;;;5079896;28;19928;-92
2023/06/02 01:32:05;;;;;;;;;;;19.70;75.70;;;;;;5077312;28;19970;-91
2023/06/02 01:34:37;;;;;;;;;;;19.70;75.80;;;;;;5071722;28;19924;-92
2023/06/02 01:37:05;;;;;;;;;;;19.70;75.90;;;;;;5074968;28;19931;-92
2023/06/02 01:39:32;;;;;;;;;;;19.60;75.80;;;;;;5103674;28;20384;-91
2023/06/02 01:42:01;;;;;;;;;;;19.60;75.80;;;;;;5088569;28;19980;-92
2023/06/02 01:44:28;;;;;;;;;;;19.60;75.90;;;;;;5088540;28;19925;-92
2023/06/02 01:46:55;;;;;;;;;;;19.60;75.90;;;;;;5072859;28;20435;-91
2023/06/02 01:49:22;;;;;;;;;;;19.50;75.90;;;;;;5076143;28;19924;-93
2023/06/02 01:51:49;;;;;;;;;;;19.50;75.90;;;;;;5075886;28;19928;-92
2023/06/02 01:54:16;;;;;;;;;;;19.50;75.90;;;;;;5078300;28;19967;-92
2023/06/02 01:56:43;;;;;;;;;;;19.50;75.90;;;;;;5080969;28;20298;-94
2023/06/02 01:59:16;;;;;;;;;;;19.40;75.70;;;;;;5077341;28;20410;-92
2023/06/02 02:01:44;;;;;;;;;;;19.40;75.60;;;;;;5075018;28;19964;-93
2023/06/02 02:04:11;;;;;;;;;;;19.40;75.60;;;;;;5090268;28;19932;-93
2023/06/02 02:06:39;;;;;;;;;;;19.30;75.50;;;;;;5078179;28;19924;-92
2023/06/02 02:09:07;;;;;;;;;;;19.30;75.50;;;;;;5073653;28;19977;-93
2023/06/02 02:11:34;;;;;;;;;;;19.30;75.40;;;;;;5069575;28;19925;-92
2023/06/02 02:14:04;;;;;;;;;;;19.20;75.40;;;;;;5071343;28;19925;-92
2023/06/02 02:16:36;;;;;;;;;;;19.20;75.10;;;;;;5084169;28;19978;-92
2023/06/02 02:19:03;;;;;;;;;;;19.20;75.30;;;;;;5096178;28;19932;-93
2023/06/02 02:21:31;;;;;;;;;;;19.10;75.00;;;;;;5087602;28;19925;-92
2023/06/02 02:23:58;;;;;;;;;;;19.10;74.80;;;;;;5083287;28;20043;-91
2023/06/02 02:26:26;;;;;;;;;;;19.10;74.90;;;;;;5082457;28;19928;-93
2023/06/02 02:28:53;;;;;;;;;;;19.00;74.80;;;;;;5079117;28;20035;-94
2023/06/02 02:31:22;;;;;;;;;;;19.00;74.90;;;;;;5083798;28;19928;-92
2023/06/02 02:33:51;;;;;;;;;;;19.00;74.90;;;;;;5078623;28;19932;-92
2023/06/02 02:36:18;;;;;;;;;;;19.00;75.00;;;;;;5081060;28;20268;-92
2023/06/02 02:38:47;;;;;;;;;;;18.90;74.90;;;;;;5080865;28;19932;-92
2023/06/02 02:41:14;;;;;;;;;;;18.90;74.80;;;;;;5082274;28;20310;-92
2023/06/02 02:43:42;;;;;;;;;;;18.90;75.50;;;;;;5072276;28;19931;-91
2023/06/02 02:46:08;;;;;;;;;;;18.80;74.80;;;;;;5083627;28;20349;-92
2023/06/02 02:48:35;;;;;;;;;;;18.80;74.50;;;;;;5077259;28;20480;-92
2023/06/02 02:51:05;;;;;;;;;;;18.80;74.60;;;;;;5092724;28;19955;-91
2023/06/02 02:53:33;;;;;;;;;;;18.70;74.60;;;;;;5075640;28;19925;-92
2023/06/02 02:56:02;;;;;;;;;;;18.70;74.50;;;;;;5078488;28;19968;-92
2023/06/02 02:58:31;;;;;;;;;;;18.70;74.60;;;;;;5082165;28;19924;-92
2023/06/02 03:00:58;;;;;;;;;;;18.70;74.30;;;;;;5087773;28;19925;-93
2023/06/02 03:03:26;;;;;;;;;;;18.60;74.50;;;;;;5084447;28;19970;-91
2023/06/02 03:05:54;;;;;;;;;;;18.60;74.50;;;;;;5085101;28;20020;-91
2023/06/02 03:08:28;;;;;;;;;;;18.60;74.60;;;;;;5078769;28;19924;-92
2023/06/02 03:10:56;;;;;;;;;;;18.50;74.60;;;;;;5091440;28;19946;-92
2023/06/02 03:13:23;;;;;;;;;;;18.50;74.50;;;;;;5077308;28;20348;-92
2023/06/02 03:15:51;;;;;;;;;;;18.50;74.50;;;;;;5075330;28;19982;-91
2023/06/02 03:18:19;;;;;;;;;;;18.50;75.10;;;;;;5087084;28;19929;-91
2023/06/02 03:20:48;;;;;;;;;;;18.50;74.30;;;;;;5071164;28;19966;-92
2023/06/02 03:23:17;;;;;;;;;;;18.40;73.90;;;;;;5094293;28;19924;-92
2023/06/02 03:25:45;;;;;;;;;;;18.40;74.50;;;;;;5069733;28;19924;-91
2023/06/02 03:28:12;;;;;;;;;;;18.40;74.50;;;;;;5084428;28;20387;-90
2023/06/02 03:30:39;;;;;;;;;;;18.30;74.40;;;;;;5085108;28;19971;-91
2023/06/02 03:33:06;;;;;;;;;;;18.30;74.50;;;;;;5074156;28;19935;-91
2023/06/02 03:35:33;;;;;;;;;;;18.30;74.50;;;;;;5074147;28;20321;-91
2023/06/02 03:38:00;;;;;;;;;;;18.30;74.50;;;;;;5088925;28;19928;-90
2023/06/02 03:40:31;;;;;;;;;;;18.30;74.60;;;;;;5088220;28;19929;-92
2023/06/02 03:42:59;;;;;;;;;;;18.20;74.50;;;;;;5082038;28;20037;-90
2023/06/02 03:45:26;;;;;;;;;;;18.20;74.60;;;;;;5090649;28;20023;-91
2023/06/02 03:47:53;;;;;;;;;;;18.20;74.60;;;;;;5078240;28;20365;-91
2023/06/02 03:50:22;;;;;;;;;;;18.10;74.50;;;;;;5082445;28;19925;-91
2023/06/02 03:52:49;;;;;;;;;;;18.10;74.60;;;;;;5080706;28;19931;-92
2023/06/02 03:55:17;;;;;;;;;;;18.10;74.60;;;;;;5077782;28;19967;-90
2023/06/02 03:57:46;;;;;;;;;;;18.10;74.60;;;;;;5074445;28;19925;-91
2023/06/02 04:00:14;;;;;;;;;;;18.10;74.50;;;;;;5075002;28;20382;-91
2023/06/02 04:02:41;;;;;;;;;;;18.10;74.60;;;;;;5081410;28;19960;-93
2023/06/02 04:05:11;;;;;;;;;;;18.00;74.60;;;;;;5079307;28;19956;-91
2023/06/02 04:07:38;;;;;;;;;;;18.00;74.60;;;;;;5079420;28;19952;-91
2023/06/02 04:10:06;;;;;;;;;;;17.90;74.40;;;;;;5084684;28;19928;-92
2023/06/02 04:12:33;;;;;;;;;;;17.90;74.60;;;;;;5072048;28;19929;-91
2023/06/02 04:15:01;;;;;;;;;;;17.90;74.60;;;;;;5075840;28;19956;-91
2023/06/02 04:17:29;;;;;;;;;;;17.90;74.60;;;;;;5079546;28;19925;-92
2023/06/02 04:19:56;;;;;;;;;;;17.90;74.60;;;;;;5078262;28;20024;-91
2023/06/02 04:22:23;;;;;;;;;;;17.90;74.50;;;;;;5065624;28;20375;-91
2023/06/02 04:24:50;;;;;;;;;;;17.80;74.40;;;;;;5071395;28;19928;-91
2023/06/02 04:27:18;;;;;;;;;;;17.80;74.50;;;;;;5070807;28;19924;-92
2023/06/02 04:29:45;;;;;;;;;;;17.80;74.60;;;;;;5085349;28;20282;-92
2023/06/02 04:32:13;;;;;;;;;;;17.80;74.60;;;;;;5079088;28;20019;-91
2023/06/02 04:34:41;;;;;;;;;;;17.80;74.70;;;;;;5094963;28;20024;-91
2023/06/02 04:37:08;;;;;;;;;;;17.80;74.60;;;;;;5077480;28;19924;-92
2023/06/02 04:39:36;;;;;;;;;;;17.70;74.40;;;;;;5081001;28;19994;-91
2023/06/02 04:42:05;;;;;;;;;;;17.70;74.50;;;;;;5070980;28;20000;-89
2023/06/02 04:44:32;;;;;;;;;;;17.70;74.60;;;;;;5068235;28;19932;-93
2023/06/02 04:46:59;;;;;;;;;;;17.60;74.60;;;;;;5084798;28;19978;-91
2023/06/02 04:49:26;;;;;;;;;;;17.60;74.60;;;;;;5070922;28;19924;-92
2023/06/02 04:51:55;;;;;;;;;;;17.60;74.60;;;;;;5070572;28;19925;-91
2023/06/02 04:54:22;;;;;;;;;;;17.60;74.60;;;;;;5086871;28;19924;-91
2023/06/02 04:56:50;;;;;;;;;;;17.60;74.90;;;;;;5094372;28;19928;-90
2023/06/02 04:59:19;;;;;;;;;;;17.50;74.70;;;;;;5084164;28;19931;-89
2023/06/02 05:01:46;;;;;;;;;;;17.50;74.80;;;;;;5073789;28;19932;-93
2023/06/02 05:04:13;;;;;;;;;;;17.50;74.90;;;;;;5086952;28;20412;-90
2023/06/02 05:06:41;;;;;;;;;;;17.50;75.00;;;;;;5068809;28;20419;-90
2023/06/02 05:09:10;;;;;;;;;;;17.50;75.00;;;;;;5079715;28;19928;-89
2023/06/02 05:11:37;;;;;;;;;;;17.50;75.00;;;;;;5075649;28;19924;-91
2023/06/02 05:14:05;;;;;;;;;;;17.50;75.20;;;;;;5066925;28;19971;-90
2023/06/02 05:16:33;;;;;;;;;;;17.40;75.10;;;;;;5072846;28;19925;-91
2023/06/02 05:19:01;;;;;;;;;;;17.40;75.20;;;;;;5082932;28;19928;-89
2023/06/02 05:21:29;;;;;;;;;;;17.40;75.40;;;;;;5076709;28;19933;-90
2023/06/02 05:23:56;;;;;;;;;;;17.40;75.60;;;;;;5099106;28;19932;-90
2023/06/02 05:26:24;;;;;;;;;;;17.40;75.70;;;;;;5087195;28;19924;-89
2023/06/02 05:28:53;;;;;;;;;;;17.40;75.90;;;;;;5088415;28;19929;-90
2023/06/02 05:31:20;;;;;;;;;;;17.40;76.10;;;;;;5079192;28;19959;-89
2023/06/02 05:33:48;;;;;;;;;;;17.40;76.10;;;;;;5100693;28;20054;-90
2023/06/02 05:36:15;;;;;;;;;;;17.40;75.80;;;;;;5099588;28;19952;-92
2023/06/02 05:38:42;;;;;;;;;;;17.40;75.90;;;;;;5095100;28;20011;-91
2023/06/02 05:41:09;;;;;;;;;;;17.40;76.00;;;;;;5085612;28;19924;-90
2023/06/02 05:43:38;;;;;;;;;;;17.40;76.00;;;;;;5087632;28;19925;-89
2023/06/02 05:46:05;;;;;;;;;;;17.40;75.90;;;;;;5076745;28;19990;-88
2023/06/02 05:48:32;;;;;;;;;;;17.40;75.90;;;;;;5090631;28;20382;-90
2023/06/02 05:51:00;;;;;;;;;;;17.30;75.90;;;;;;5080601;28;19928;-90
2023/06/02 05:53:28;;;;;;;;;;;17.30;76.00;;;;;;5077050;28;19925;-90
2023/06/02 05:55:55;;;;;;;;;;;17.30;76.10;;;;;;5071568;28;19931;-89
2023/06/02 05:58:22;;;;;;;;;;;17.30;76.10;;;;;;5075596;28;19924;-89
2023/06/02 06:00:50;;;;;;;;;;;17.30;75.60;;;;;;5088923;28;20011;-88
2023/06/02 06:03:17;;;;;;;;;;;17.30;76.20;;;;;;5079087;28;19925;-89
2023/06/02 06:05:45;;;;;;;;;;;17.30;76.10;;;;;;5079701;28;19925;-90
2023/06/02 06:08:12;;;;;;;;;;;17.30;76.30;;;;;;5085095;28;20401;-89
2023/06/02 06:10:42;;;;;;;;;;;17.30;76.30;;;;;;5092247;28;19931;-88
2023/06/02 06:13:09;;;;;;;;;;;17.30;76.40;;;;;;5073045;28;19925;-89
2023/06/02 06:15:36;;;;;;;;;;;17.30;76.30;;;;;;5073794;28;19924;-89
2023/06/02 06:18:05;;;;;;;;;;;17.30;76.50;;;;;;5082032;28;19924;-90
2023/06/02 06:20:32;;;;;;;;;;;17.30;76.50;;;;;;5074327;28;19924;-89
2023/06/02 06:22:59;;;;;;;;;;;17.30;76.50;;;;;;5078677;28;19924;-90
2023/06/02 06:25:28;;;;;;;;;;;17.30;76.50;;;;;;5093789;28;20335;-90
2023/06/02 06:27:56;;;;;;;;;;;17.30;76.50;;;;;;5080273;28;19930;-89
2023/06/02 06:30:24;;;;;;;;;;;17.30;76.50;;;;;;5077796;28;19936;-91
2023/06/02 06:32:54;;;;;;;;;;;17.30;76.50;;;;;;5080742;28;19924;-90
2023/06/02 06:35:23;;;;;;;;;;;17.30;76.60;;;;;;5081289;28;19974;-91
2023/06/02 06:37:50;;;;;;;;;;;17.30;76.70;;;;;;5073688;28;20019;-89
2023/06/02 06:40:18;;;;;;;;;;;17.30;76.70;;;;;;5072682;28;19932;-90
2023/06/02 06:42:46;;;;;;;;;;;17.30;76.90;;;;;;5086040;28;19951;-90
2023/06/02 06:45:28;;;;;;;;;;;17.30;77.20;;;;;;5086479;28;19942;-89
2023/06/02 06:47:55;;;;;;;;;;;17.30;77.00;;;;;;5072921;28;19951;-89
2023/06/02 06:50:24;;;;;;;;;;;17.30;77.40;;;;;;5084647;28;19924;-91
2023/06/02 06:52:52;;;;;;;;;;;17.30;77.20;;;;;;5071971;28;19928;-91
2023/06/02 06:55:19;;;;;;;;;;;17.30;77.30;;;;;;5070458;28;19924;-89
2023/06/02 06:57:46;;;;;;;;;;;17.30;78.50;;;;;;5073060;28;19924;-90
2023/06/02 07:00:14;;;;;;;;;;;17.40;78.20;;;;;;5078436;28;19951;-89
2023/06/02 07:02:43;;;;;;;;;;;17.40;78.40;;;;;;5075763;28;19932;-90
2023/06/02 07:05:10;;;;;;;;;;;17.40;78.30;;;;;;5072563;28;19940;-90
2023/06/02 07:07:38;;;;;;;;;;;17.40;78.20;;;;;;5083223;28;19928;-89
2023/06/02 07:10:06;;;;;;;;;;;17.40;77.30;;;;;;5093278;28;19951;-90
2023/06/02 07:12:33;;;;;;;;;;;17.40;78.40;;;;;;5082835;28;19924;-91
2023/06/02 07:14:59;;;;;;;;;;;17.40;78.60;;;;;;5089656;28;19944;-89
2023/06/02 07:17:26;;;;;;;;;;;17.40;78.80;;;;;;5084632;28;20195;-90
2023/06/02 07:19:53;;;;;;;;;;;17.50;79.00;;;;;;5070202;28;19924;-89
2023/06/02 07:22:21;;;;;;;;;;;17.50;79.00;;;;;;5072744;28;19928;-88
2023/06/02 07:24:52;;;;;;;;;;;17.50;79.10;;;;;;5069151;28;19932;-89
2023/06/02 07:27:19;;;;;;;;;;;17.50;79.10;;;;;;5111930;22;19932;-77
2023/06/02 07:29:47;;;;;;;;;;;17.50;79.20;;;;;;5063198;28;19931;-77
2023/06/02 07:32:14;;;;;;;;;;;17.50;79.30;;;;;;5080445;28;19924;-78
2023/06/02 07:34:41;;;;;;;;;;;17.50;79.20;;;;;;5107503;28;20389;-78
2023/06/02 07:37:07;;;;;;;;;;;17.50;79.30;;;;;;5105861;28;19935;-78
2023/06/02 07:39:34;;;;;;;;;;;17.50;79.40;;;;;;5106970;28;19923;-77
2023/06/02 07:42:03;;;;;;;;;;;17.50;79.40;;;;;;5109669;28;20405;-77
2023/06/02 07:44:30;;;;;;;;;;;17.60;79.60;;;;;;5107869;28;19923;-78
2023/06/02 07:46:56;;;;;;;;;;;17.60;79.70;;;;;;5106579;28;19923;-77
2023/06/02 07:49:23;;;;;;;;;;;17.50;79.50;;;;;;5109030;28;19986;-78
2023/06/02 07:51:52;;;;;;;;;;;17.60;79.70;;;;;;5090132;28;20553;-77
2023/06/02 07:54:20;;;;;;;;;;;17.60;79.80;;;;;;5106226;28;19924;-78
2023/06/02 07:56:50;;;;;;;;;;;17.60;79.90;;;;;;5106555;28;19934;-78
2023/06/02 07:59:19;;;;;;;;;;;17.60;79.90;;;;;;5107463;27;19938;-78
2023/06/02 08:01:47;;;;;;;;;;;17.60;80.00;;;;;;5090447;28;20408;-78
2023/06/02 08:04:14;;;;;;;;;;;17.60;80.10;;;;;;5104307;28;19932;-78
2023/06/02 08:06:41;;;;;;;;;;;17.60;80.10;;;;;;5106093;28;20409;-78
2023/06/02 08:09:08;;;;;;;;;;;17.60;80.20;;;;;;5109488;28;19930;-78
2023/06/02 08:11:35;;;;;;;;;;;17.60;80.20;;;;;;5108419;28;20365;-78
2023/06/02 08:14:02;;;;;;;;;;;17.70;80.40;;;;;;5091119;28;19931;-78
2023/06/02 08:16:30;;;;;;;;;;;17.60;80.50;;;;;;5106267;28;19923;-78
2023/06/02 08:18:57;;;;;;;;;;;17.70;80.70;;;;;;5107823;28;20531;-78
2023/06/02 08:21:24;;;;;;;;;;;17.70;80.60;;;;;;5092930;28;20352;-78
2023/06/02 08:23:51;;;;;;;;;;;17.70;80.80;;;;;;5087672;28;19928;-77
2023/06/02 08:26:18;;;;;;;;;;;17.70;80.40;;;;;;5106881;28;20405;-78
2023/06/02 08:28:49;;;;;;;;;;;17.70;80.80;;;;;;5108745;27;20378;-77
2023/06/02 08:31:18;;;;;;;;;;;17.70;80.70;;;;;;5085155;28;19931;-78
2023/06/02 08:33:47;;;;;;;;;;;17.70;80.70;;;;;;5107659;28;19967;-77
2023/06/02 08:36:17;;;;;;;;;;;17.70;80.80;;;;;;5107867;28;19930;-78
2023/06/02 08:38:44;;;;;;;;;;;17.70;80.90;;;;;;5106980;28;19946;-77
2023/06/02 08:41:12;;;;;;;;;;;17.70;81.00;;;;;;5105200;28;19932;-78
2023/06/02 08:43:39;;;;;;;;;;;17.70;81.00;;;;;;5108393;28;19924;-78
2023/06/02 08:46:07;;;;;;;;;;;17.70;81.10;;;;;;5108788;28;19930;-77
2023/06/02 08:48:35;;;;;;;;;;;17.70;81.10;;;;;;5104128;28;19925;-78
2023/06/02 08:51:07;;;;;;;;;;;17.70;81.30;;;;;;5108340;28;19930;-77
2023/06/02 08:53:34;;;;;;;;;;;17.80;81.30;;;;;;5105616;28;19924;-78
2023/06/02 08:56:01;;;;;;;;;;;17.70;81.20;;;;;;5087033;28;20431;-77
2023/06/02 08:58:29;;;;;;;;;;;17.70;81.20;;;;;;5107296;28;19942;-77
2023/06/02 09:00:57;;;;;;;;;;;17.70;81.40;;;;;;5107814;28;19931;-78
2023/06/02 09:03:25;;;;;;;;;;;17.70;81.40;;;;;;5089126;28;20340;-78
2023/06/02 09:05:54;;;;;;;;;;;17.70;81.40;;;;;;5108616;28;19955;-77
2023/06/02 09:08:23;;;;;;;;;;;17.80;81.50;;;;;;5106780;28;20010;-77
2023/06/02 09:10:50;;;;;;;;;;;17.70;81.20;;;;;;5111976;28;19928;-77
2023/06/02 09:13:30;;;;;;;;;;;17.80;81.20;;;;;;5091139;28;20617;-78
2023/06/02 09:15:58;;;;;;;;;;;17.80;81.50;;;;;;5108111;28;19923;-78
2023/06/02 09:18:25;;;;;;;;;;;17.80;81.70;;;;;;5112269;28;19923;-78
2023/06/02 09:20:52;;;;;;;;;;;17.80;81.50;;;;;;5092151;28;19928;-78
2023/06/02 09:23:19;;;;;;;;;;;17.80;81.70;;;;;;5106508;28;19954;-77
2023/06/02 09:25:51;;;;;;;;;;;17.80;81.20;;;;;;5111631;28;19924;-77
2023/06/02 09:28:18;;;;;;;;;;;17.80;81.80;;;;;;5111565;28;19946;-78
2023/06/02 09:30:45;;;;;;;;;;;17.80;81.70;;;;;;5111402;27;20014;-78
2023/06/02 09:33:12;;;;;;;;;;;17.80;81.70;;;;;;5108254;28;19977;-78
2023/06/02 09:35:44;;;;;;;;;;;17.80;80.90;;;;;;5092560;28;19923;-77
2023/06/02 09:38:13;;;;;;;;;;;17.80;81.00;;;;;;5094074;28;19932;-78
2023/06/02 09:40:42;;;;;;;;;;;17.80;81.60;;;;;;5108052;27;20415;-78
2023/06/02 09:43:12;;;;;;;;;;;17.80;81.00;;;;;;5112280;28;19930;-78
2023/06/02 09:45:57;;;;;;;;;;;17.80;81.60;;;;;;5111944;28;19924;-77
2023/06/02 09:48:27;;;;;;;;;;;17.80;80.90;;;;;;5111200;28;19928;-77
2023/06/02 09:50:55;;;;;;;;;;;17.90;81.30;;;;;;5109096;28;20433;-78
2023/06/02 09:53:23;;;;;;;;;;;17.80;81.20;;;;;;5106899;28;19974;-78
2023/06/02 09:55:50;;;;;;;;;;;17.90;81.60;;;;;;5110015;27;19924;-78
2023/06/02 09:58:19;;;;;;;;;;;17.90;81.50;;;;;;5108291;28;19928;-78
2023/06/02 10:00:46;;;;;;;;;;;17.90;81.70;;;;;;5111059;28;19938;-77
2023/06/02 10:03:13;;;;;;;;;;;17.90;81.50;;;;;;5093214;28;19931;-78
2023/06/02 10:05:46;;;;;;;;;;;17.90;82.00;;;;;;5110226;28;19978;-77
2023/06/02 10:08:20;;;;;;;;;;;17.90;82.20;;;;;;5108457;28;19924;-78
2023/06/02 10:10:53;;;;;;;;;;;17.90;82.20;;;;;;5108252;28;19931;-78
2023/06/02 10:13:38;;;;;;;;;;;18.00;82.30;;;;;;5092408;28;20036;-77
2023/06/02 10:16:17;;;;;;;;;;;18.00;82.30;;;;;;5106722;28;20401;-77
2023/06/02 10:18:58;;;;;;;;;;;18.00;82.50;;;;;;5108729;28;20026;-77
2023/06/02 10:21:31;;;;;;;;;;;18.00;82.50;;;;;;5090398;28;19923;-77
2023/06/02 10:24:01;;;;;;;;;;;18.00;82.50;;;;;;5092617;28;20003;-78
2023/06/02 10:26:43;;;;;;;;;;;18.00;83.30;;;;;;5108220;28;19924;-77
2023/06/02 10:29:13;;;;;;;;;;;18.10;82.90;;;;;;5088881;28;19954;-77
2023/06/02 10:31:40;;;;;;;;;;;18.10;83.30;;;;;;5109187;28;19927;-77
2023/06/02 10:34:07;;;;;;;;;;;18.10;83.20;;;;;;5091465;28;19930;-77
2023/06/02 10:36:48;;;;;;;;;;;18.10;82.70;;;;;;5109029;28;19927;-78
2023/06/02 10:39:31;;;;;;;;;;;18.10;83.60;;;;;;5105200;28;20455;-77
2023/06/02 10:42:06;;;;;;;;;;;18.10;83.40;;;;;;5104182;28;19932;-77
2023/06/02 10:44:34;;;;;;;;;;;18.10;83.90;;;;;;5105412;27;19927;-77
2023/06/02 10:47:20;;;;;;;;;;;18.20;84.40;;;;;;5105447;28;19927;-77
2023/06/02 10:49:53;;;;;;;;;;;18.20;84.50;;;;;;5099612;28;19930;-77
2023/06/02 10:52:20;;;;;;;;;;;18.20;84.70;;;;;;5105243;28;19932;-77
2023/06/02 10:55:10;;;;;;;;;;;18.20;84.00;;;;;;5108393;28;19928;-77
2023/06/02 10:57:51;;;;;;;;;;;18.20;84.20;;;;;;5106822;28;19938;-78
2023/06/02 11:00:32;;;;;;;;;;;18.30;84.80;;;;;;5102771;28;19963;-77
2023/06/02 11:02:59;;;;;;;;;;;18.30;84.20;;;;;;5098953;28;19973;-77
2023/06/02 11:05:27;;;;;;;;;;;18.30;84.60;;;;;;5103255;28;19927;-77
2023/06/02 11:08:15;;;;;;;;;;;18.30;84.90;;;;;;5109519;28;20015;-77
2023/06/02 11:10:43;;;;;;;;;;;18.40;84.60;;;;;;5103941;28;19974;-77
2023/06/02 11:13:12;;;;;;;;;;;18.40;84.60;;;;;;5106858;28;19924;-77
2023/06/02 11:15:39;;;;;;;;;;;18.40;84.60;;;;;;5094613;28;19930;-77
2023/06/02 11:18:21;;;;;;;;;;;18.40;84.80;;;;;;5105842;28;19999;-78
2023/06/02 11:20:49;;;;;;;;;;;18.40;84.80;;;;;;5088477;28;19974;-78
2023/06/02 11:23:17;;;;;;;;;;;18.50;84.50;;;;;;5108769;28;19974;-78
2023/06/02 11:25:44;;;;;;;;;;;18.50;84.80;;;;;;5110409;28;19927;-77
2023/06/02 11:28:20;;;;;;;;;;;18.50;84.80;;;;;;5108543;27;19923;-78
2023/06/02 11:30:47;;;;;;;;;;;18.60;84.70;;;;;;5090225;28;20365;-78
2023/06/02 11:33:14;;;;;;;;;;;18.60;84.70;;;;;;5090627;28;19924;-77
2023/06/02 11:35:46;;;;;;;;;;;18.60;84.70;;;;;;5108009;28;19923;-77
2023/06/02 11:38:16;;;;;;;;;;;18.70;85.20;;;;;;5108953;28;19927;-77
2023/06/02 11:40:43;;;;;;;;;;;18.70;85.30;;;;;;5109085;28;19935;-78
2023/06/02 11:43:10;;;;;;;;;;;18.70;84.90;;;;;;5103083;27;20028;-77
2023/06/02 11:45:38;;;;;;;;;;;18.80;84.90;;;;;;5100438;28;19935;-78
2023/06/02 11:48:08;;;;;;;;;;;18.80;84.70;;;;;;5109910;28;19923;-77
2023/06/02 11:50:35;;;;;;;;;;;18.80;85.20;;;;;;5109263;28;19945;-78
2023/06/02 11:53:02;;;;;;;;;;;18.90;85.00;;;;;;5106031;28;20448;-78
2023/06/02 11:55:30;;;;;;;;;;;18.90;85.10;;;;;;5093170;28;19955;-78
2023/06/02 11:58:15;;;;;;;;;;;18.90;84.90;;;;;;5107470;28;20424;-77
2023/06/02 12:00:44;;;;;;;;;;;19.00;84.90;;;;;;5090669;28;19932;-78
2023/06/02 12:03:12;;;;;;;;;;;19.00;85.00;;;;;;5108528;28;19954;-78
2023/06/02 12:05:43;;;;;;;;;;;19.00;85.00;;;;;;5109816;28;19927;-78
2023/06/02 12:08:10;;;;;;;;;;;19.10;85.20;;;;;;5108523;28;19924;-78
2023/06/02 12:10:38;;;;;;;;;;;19.10;85.10;;;;;;5103164;28;19924;-78
2023/06/02 12:13:05;;;;;;;;;;;19.10;85.20;;;;;;5106676;28;20439;-77
2023/06/02 12:15:33;;;;;;;;;;;19.20;85.20;;;;;;5091014;28;19985;-78
2023/06/02 12:18:03;;;;;;;;;;;19.20;85.00;;;;;;5106087;28;20006;-77
2023/06/02 12:20:34;;;;;;;;;;;19.20;85.10;;;;;;5084124;28;19935;-77
2023/06/02 12:23:01;;;;;;;;;;;19.30;85.20;;;;;;5109606;28;19935;-78
2023/06/02 12:25:28;;;;;;;;;;;19.30;85.10;;;;;;5108269;28;19931;-77
2023/06/02 12:28:04;;;;;;;;;;;19.30;85.20;;;;;;5107076;28;19958;-78
2023/06/02 12:30:31;;;;;;;;;;;19.40;85.30;;;;;;5105316;28;20337;-78
2023/06/02 12:33:06;;;;;;;;;;;19.40;85.30;;;;;;5110760;27;19924;-77
2023/06/02 12:35:33;;;;;;;;;;;19.40;85.40;;;;;;5109014;27;20360;-77
2023/06/02 12:37:59;;;;;;;;;;;19.50;85.50;;;;;;5087156;28;19924;-77
2023/06/02 12:40:28;;;;;;;;;;;19.40;85.40;;;;;;5103893;28;19932;-78
2023/06/02 12:42:56;;;;;;;;;;;19.40;85.40;;;;;;5107556;27;19939;-78
2023/06/02 12:45:23;;;;;;;;;;;19.50;85.40;;;;;;5090661;28;19924;-78
2023/06/02 12:47:52;;;;;;;;;;;19.50;85.50;;;;;;5104546;28;19946;-78
2023/06/02 12:50:20;;;;;;;;;;;19.60;85.50;;;;;;5106935;28;19924;-78
2023/06/02 12:52:47;;;;;;;;;;;19.60;85.50;;;;;;5107994;28;19966;-78
2023/06/02 12:55:14;;;;;;;;;;;19.60;85.50;;;;;;5106728;28;20016;-78
2023/06/02 12:57:41;;;;;;;;;;;19.70;85.50;;;;;;5106312;28;19924;-78
2023/06/02 13:00:10;;;;;;;;;;;19.70;85.20;;;;;;5107598;28;19947;-78
2023/06/02 13:02:37;;;;;;;;;;;19.80;84.90;;;;;;5108542;28;19924;-78
2023/06/02 13:05:03;;;;;;;;;;;19.80;84.70;;;;;;5101116;28;19931;-78
2023/06/02 13:07:32;;;;;;;;;;;19.90;84.70;;;;;;5108634;28;19931;-78
2023/06/02 13:09:58;;;;;;;;;;;19.90;85.10;;;;;;5108466;28;19985;-78
2023/06/02 13:12:25;;;;;;;;;;;19.90;85.30;;;;;;5086973;28;19928;-78
2023/06/02 13:14:52;;;;;;;;;;;20.00;85.40;;;;;;5106193;28;19924;-78
2023/06/02 13:17:19;;;;;;;;;;;20.00;85.50;;;;;;5108294;28;20014;-78
2023/06/02 13:19:47;;;;;;;;;;;20.00;85.50;;;;;;5108809;28;19931;-78
2023/06/02 13:22:14;;;;;;;;;;;20.10;85.30;;;;;;5105251;28;20385;-78
2023/06/02 13:24:42;;;;;;;;;;;20.20;84.60;;;;;;5107520;28;20344;-78
2023/06/02 13:27:09;;;;;;;;;;;20.30;84.30;;;;;;5108254;28;20309;-78
2023/06/02 13:29:36;;;;;;;;;;;20.40;83.60;;;;;;5107233;28;20033;-78
2023/06/02 13:32:03;;;;;;;;;;;20.40;83.80;;;;;;5105726;28;19930;-78
2023/06/02 13:34:30;;;;;;;;;;;20.40;84.30;;;;;;5104070;28;20013;-78
2023/06/02 13:36:57;;;;;;;;;;;20.40;84.40;;;;;;5102312;28;20711;-78
2023/06/02 13:39:24;;;;;;;;;;;20.50;84.40;;;;;;5105777;28;20282;-78
2023/06/02 13:41:52;;;;;;;;;;;20.50;84.90;;;;;;5090730;28;19931;-78
2023/06/02 13:44:19;;;;;;;;;;;20.50;85.30;;;;;;5108282;28;19930;-77
2023/06/02 13:46:47;;;;;;;;;;;20.60;84.80;;;;;;5106971;28;19963;-78
2023/06/02 13:49:16;;;;;;;;;;;20.60;85.10;;;;;;5087793;28;19927;-78
2023/06/02 13:51:43;;;;;;;;;;;20.60;84.80;;;;;;5109215;28;20033;-79
2023/06/02 13:54:10;;;;;;;;;;;20.70;84.20;;;;;;5112186;28;20310;-79
2023/06/02 13:56:37;;;;;;;;;;;20.80;83.90;;;;;;5089228;28;19973;-78
2023/06/02 13:59:05;;;;;;;;;;;20.90;83.70;;;;;;5112200;28;19924;-78
2023/06/02 14:01:32;;;;;;;;;;;21.00;83.70;;;;;;5113021;28;20301;-78
2023/06/02 14:03:59;;;;;;;;;;;21.00;83.90;;;;;;5107971;28;19970;-79
2023/06/02 14:06:26;;;;;;;;;;;21.00;83.80;;;;;;5109853;28;19928;-78
2023/06/02 14:08:53;;;;;;;;;;;21.00;84.20;;;;;;5084737;22;19933;-72
2023/06/02 14:11:22;;;;;;;;;;;21.10;84.30;;;;;;5044004;28;20359;-72
2023/06/02 14:13:49;;;;;;;;;;;21.10;83.80;;;;;;5069692;22;20132;-77
2023/06/02 14:16:17;;;;;;;;;;;21.20;83.40;;;;;;5067104;28;19924;-79
2023/06/02 14:18:44;;;;;;;;;;;21.30;83.60;;;;;;5084661;28;19983;-79
2023/06/02 14:21:11;;;;;;;;;;;21.30;83.70;;;;;;5079534;28;20100;-78
2023/06/02 14:23:38;;;;;;;;;;;21.40;84.00;;;;;;5083188;28;19972;-77